sensor_id;sensor_type;location;lat;lon;timestamp;P1;durP1;ratioP1;P2;durP2;ratioP2
25409;SDS011;13339;50.840;4.346;2023-03-12T00:00:37;11.03;;;4.83;;
25409;SDS011;13339;50.840;4.346;2023-03-12T00:03:04;9.47;;;5.03;;
25409;SDS011;13339;50.840;4.346;2023-03-12T00:05:30;12.13;;;4.60;;
25409;SDS011;13339;50.840;4.346;2023-03-12T00:07:55;8.83;;;4.63;;
25409;SDS011;13339;50.840;4.346;2023-03-12T00:10:24;10.63;;;5.17;;
25409;SDS011;13339;50.840;4.346;2023-03-12T00:12:52;9.57;;;4.27;;
25409;SDS011;13339;50.840;4.346;2023-03-12T00:15:18;12.80;;;5.30;;
25409;SDS011;13339;50.840;4.346;2023-03-12T00:17:44;10.93;;;5.20;;
25409;SDS011;13339;50.840;4.346;2023-03-12T00:20:10;16.93;;;5.10;;
25409;SDS011;13339;50.840;4.346;2023-03-12T00:22:36;14.27;;;5.03;;
25409;SDS011;13339;50.840;4.346;2023-03-12T00:25:02;11.97;;;5.10;;
25409;SDS011;13339;50.840;4.346;2023-03-12T00:27:29;10.23;;;5.10;;
25409;SDS011;13339;50.840;4.346;2023-03-12T00:29:54;11.57;;;5.37;;
25409;SDS011;13339;50.840;4.346;2023-03-12T00:32:20;9.00;;;5.40;;
25409;SDS011;13339;50.840;4.346;2023-03-12T00:34:49;12.57;;;5.50;;
25409;SDS011;13339;50.840;4.346;2023-03-12T00:37:16;9.47;;;5.37;;
25409;SDS011;13339;50.840;4.346;2023-03-12T00:39:42;11.20;;;5.13;;
25409;SDS011;13339;50.840;4.346;2023-03-12T00:42:07;17.53;;;5.47;;
25409;SDS011;13339;50.840;4.346;2023-03-12T00:44:33;14.43;;;5.37;;
25409;SDS011;13339;50.840;4.346;2023-03-12T00:46:58;7.93;;;5.03;;
25409;SDS011;13339;50.840;4.346;2023-03-12T00:49:24;10.53;;;5.43;;
25409;SDS011;13339;50.840;4.346;2023-03-12T00:51:50;11.13;;;5.77;;
25409;SDS011;13339;50.840;4.346;2023-03-12T00:54:15;8.80;;;4.90;;
25409;SDS011;13339;50.840;4.346;2023-03-12T00:56:41;14.00;;;6.03;;
25409;SDS011;13339;50.840;4.346;2023-03-12T00:59:07;11.77;;;5.07;;
25409;SDS011;13339;50.840;4.346;2023-03-12T01:01:32;10.83;;;4.80;;
25409;SDS011;13339;50.840;4.346;2023-03-12T01:03:58;8.63;;;5.20;;
25409;SDS011;13339;50.840;4.346;2023-03-12T01:06:24;10.27;;;4.63;;
25409;SDS011;13339;50.840;4.346;2023-03-12T01:08:50;7.57;;;4.03;;
25409;SDS011;13339;50.840;4.346;2023-03-12T01:11:17;8.57;;;4.30;;
25409;SDS011;13339;50.840;4.346;2023-03-12T01:13:44;13.73;;;4.30;;
25409;SDS011;13339;50.840;4.346;2023-03-12T01:16:10;7.67;;;4.17;;
25409;SDS011;13339;50.840;4.346;2023-03-12T01:18:36;12.33;;;4.27;;
25409;SDS011;13339;50.840;4.346;2023-03-12T01:21:02;7.80;;;4.17;;
25409;SDS011;13339;50.840;4.346;2023-03-12T01:23:27;10.37;;;3.80;;
25409;SDS011;13339;50.840;4.346;2023-03-12T01:25:53;10.53;;;4.33;;
25409;SDS011;13339;50.840;4.346;2023-03-12T01:28:22;12.80;;;4.40;;
25409;SDS011;13339;50.840;4.346;2023-03-12T01:30:49;7.40;;;3.47;;
25409;SDS011;13339;50.840;4.346;2023-03-12T01:33:15;7.50;;;3.30;;
25409;SDS011;13339;50.840;4.346;2023-03-12T01:35:42;6.73;;;3.27;;
25409;SDS011;13339;50.840;4.346;2023-03-12T01:38:10;9.30;;;3.47;;
25409;SDS011;13339;50.840;4.346;2023-03-12T01:40:38;9.53;;;3.30;;
25409;SDS011;13339;50.840;4.346;2023-03-12T01:46:03;5.80;;;2.90;;
25409;SDS011;13339;50.840;4.346;2023-03-12T01:48:53;7.47;;;3.23;;
25409;SDS011;13339;50.840;4.346;2023-03-12T01:56:59;7.70;;;2.90;;
25409;SDS011;13339;50.840;4.346;2023-03-12T01:59:28;8.33;;;2.87;;
25409;SDS011;13339;50.840;4.346;2023-03-12T02:02:00;6.80;;;2.70;;
25409;SDS011;13339;50.840;4.346;2023-03-12T02:04:26;4.13;;;2.70;;
25409;SDS011;13339;50.840;4.346;2023-03-12T02:09:23;5.60;;;2.80;;
25409;SDS011;13339;50.840;4.346;2023-03-12T02:11:49;7.43;;;2.80;;
25409;SDS011;13339;50.840;4.346;2023-03-12T02:14:15;10.33;;;2.87;;
25409;SDS011;13339;50.840;4.346;2023-03-12T02:16:41;6.57;;;2.87;;
25409;SDS011;13339;50.840;4.346;2023-03-12T02:19:10;6.67;;;2.63;;
25409;SDS011;13339;50.840;4.346;2023-03-12T02:21:42;8.73;;;2.87;;
25409;SDS011;13339;50.840;4.346;2023-03-12T02:24:14;8.90;;;2.87;;
25409;SDS011;13339;50.840;4.346;2023-03-12T02:26:43;9.87;;;3.17;;
25409;SDS011;13339;50.840;4.346;2023-03-12T02:29:09;7.33;;;3.30;;
25409;SDS011;13339;50.840;4.346;2023-03-12T02:31:43;10.17;;;2.97;;
25409;SDS011;13339;50.840;4.346;2023-03-12T02:34:13;5.27;;;2.60;;
25409;SDS011;13339;50.840;4.346;2023-03-12T02:36:38;4.73;;;2.57;;
25409;SDS011;13339;50.840;4.346;2023-03-12T02:39:04;11.57;;;3.03;;
25409;SDS011;13339;50.840;4.346;2023-03-12T02:41:32;9.80;;;3.07;;
25409;SDS011;13339;50.840;4.346;2023-03-12T02:44:06;10.50;;;2.87;;
25409;SDS011;13339;50.840;4.346;2023-03-12T02:46:39;10.57;;;2.97;;
25409;SDS011;13339;50.840;4.346;2023-03-12T02:49:06;12.23;;;3.70;;
25409;SDS011;13339;50.840;4.346;2023-03-12T02:51:32;9.27;;;3.10;;
25409;SDS011;13339;50.840;4.346;2023-03-12T02:53:58;8.67;;;2.90;;
25409;SDS011;13339;50.840;4.346;2023-03-12T02:56:25;10.47;;;3.47;;
25409;SDS011;13339;50.840;4.346;2023-03-12T02:58:52;7.10;;;3.20;;
25409;SDS011;13339;50.840;4.346;2023-03-12T03:01:18;11.13;;;3.60;;
25409;SDS011;13339;50.840;4.346;2023-03-12T03:03:44;8.90;;;3.17;;
25409;SDS011;13339;50.840;4.346;2023-03-12T03:06:10;13.70;;;3.37;;
25409;SDS011;13339;50.840;4.346;2023-03-12T03:08:36;7.70;;;3.47;;
25409;SDS011;13339;50.840;4.346;2023-03-12T03:11:01;10.67;;;3.10;;
25409;SDS011;13339;50.840;4.346;2023-03-12T03:13:30;7.57;;;2.90;;
25409;SDS011;13339;50.840;4.346;2023-03-12T03:15:57;17.40;;;3.30;;
25409;SDS011;13339;50.840;4.346;2023-03-12T03:18:25;8.30;;;3.17;;
25409;SDS011;13339;50.840;4.346;2023-03-12T03:20:59;8.70;;;3.40;;
25409;SDS011;13339;50.840;4.346;2023-03-12T03:23:25;8.97;;;3.60;;
25409;SDS011;13339;50.840;4.346;2023-03-12T03:25:51;6.93;;;3.00;;
25409;SDS011;13339;50.840;4.346;2023-03-12T03:28:17;9.57;;;3.50;;
25409;SDS011;13339;50.840;4.346;2023-03-12T03:30:47;6.47;;;3.30;;
25409;SDS011;13339;50.840;4.346;2023-03-12T03:33:13;8.17;;;3.33;;
25409;SDS011;13339;50.840;4.346;2023-03-12T03:35:39;7.07;;;3.17;;
25409;SDS011;13339;50.840;4.346;2023-03-12T03:38:05;8.60;;;3.13;;
25409;SDS011;13339;50.840;4.346;2023-03-12T03:40:31;6.73;;;3.17;;
25409;SDS011;13339;50.840;4.346;2023-03-12T03:42:57;13.03;;;3.67;;
25409;SDS011;13339;50.840;4.346;2023-03-12T03:45:22;9.80;;;3.67;;
25409;SDS011;13339;50.840;4.346;2023-03-12T03:47:48;9.10;;;3.90;;
25409;SDS011;13339;50.840;4.346;2023-03-12T03:50:13;8.73;;;3.70;;
25409;SDS011;13339;50.840;4.346;2023-03-12T03:52:39;5.43;;;3.40;;
25409;SDS011;13339;50.840;4.346;2023-03-12T03:55:05;10.90;;;3.60;;
25409;SDS011;13339;50.840;4.346;2023-03-12T03:57:30;9.83;;;3.90;;
25409;SDS011;13339;50.840;4.346;2023-03-12T03:59:56;5.63;;;3.40;;
25409;SDS011;13339;50.840;4.346;2023-03-12T04:02:25;11.93;;;4.10;;
25409;SDS011;13339;50.840;4.346;2023-03-12T04:04:52;8.53;;;4.47;;
25409;SDS011;13339;50.840;4.346;2023-03-12T04:07:21;13.73;;;3.97;;
25409;SDS011;13339;50.840;4.346;2023-03-12T04:09:47;7.70;;;3.97;;
25409;SDS011;13339;50.840;4.346;2023-03-12T04:12:13;5.50;;;3.37;;
25409;SDS011;13339;50.840;4.346;2023-03-12T04:14:39;12.53;;;4.03;;
25409;SDS011;13339;50.840;4.346;2023-03-12T04:17:05;6.73;;;3.87;;
25409;SDS011;13339;50.840;4.346;2023-03-12T04:19:32;9.60;;;3.50;;
25409;SDS011;13339;50.840;4.346;2023-03-12T04:21:57;9.60;;;4.03;;
25409;SDS011;13339;50.840;4.346;2023-03-12T04:24:23;9.43;;;4.27;;
25409;SDS011;13339;50.840;4.346;2023-03-12T04:26:48;8.37;;;4.00;;
25409;SDS011;13339;50.840;4.346;2023-03-12T04:29:15;8.33;;;4.10;;
25409;SDS011;13339;50.840;4.346;2023-03-12T04:31:41;6.47;;;3.83;;
25409;SDS011;13339;50.840;4.346;2023-03-12T04:34:07;7.97;;;4.50;;
25409;SDS011;13339;50.840;4.346;2023-03-12T04:36:33;10.60;;;4.80;;
25409;SDS011;13339;50.840;4.346;2023-03-12T04:38:59;13.77;;;4.50;;
25409;SDS011;13339;50.840;4.346;2023-03-12T04:41:24;10.37;;;4.30;;
25409;SDS011;13339;50.840;4.346;2023-03-12T04:43:50;10.93;;;5.67;;
25409;SDS011;13339;50.840;4.346;2023-03-12T04:46:15;15.30;;;5.67;;
25409;SDS011;13339;50.840;4.346;2023-03-12T04:48:41;7.63;;;4.93;;
25409;SDS011;13339;50.840;4.346;2023-03-12T04:51:07;6.60;;;4.73;;
25409;SDS011;13339;50.840;4.346;2023-03-12T04:53:32;12.80;;;5.63;;
25409;SDS011;13339;50.840;4.346;2023-03-12T04:55:58;11.77;;;5.63;;
25409;SDS011;13339;50.840;4.346;2023-03-12T04:58:23;10.07;;;5.20;;
25409;SDS011;13339;50.840;4.346;2023-03-12T05:00:49;10.00;;;5.03;;
25409;SDS011;13339;50.840;4.346;2023-03-12T05:03:15;12.97;;;5.30;;
25409;SDS011;13339;50.840;4.346;2023-03-12T05:05:42;9.03;;;5.00;;
25409;SDS011;13339;50.840;4.346;2023-03-12T05:08:07;10.63;;;5.30;;
25409;SDS011;13339;50.840;4.346;2023-03-12T05:10:33;9.27;;;5.07;;
25409;SDS011;13339;50.840;4.346;2023-03-12T05:12:59;9.20;;;5.40;;
25409;SDS011;13339;50.840;4.346;2023-03-12T05:15:24;8.23;;;5.20;;
25409;SDS011;13339;50.840;4.346;2023-03-12T05:17:50;10.13;;;5.90;;
25409;SDS011;13339;50.840;4.346;2023-03-12T05:20:16;9.70;;;5.67;;
25409;SDS011;13339;50.840;4.346;2023-03-12T05:22:42;9.70;;;5.63;;
25409;SDS011;13339;50.840;4.346;2023-03-12T05:25:07;9.10;;;5.83;;
25409;SDS011;13339;50.840;4.346;2023-03-12T05:27:34;10.97;;;6.23;;
25409;SDS011;13339;50.840;4.346;2023-03-12T05:30:00;12.70;;;6.43;;
25409;SDS011;13339;50.840;4.346;2023-03-12T05:32:25;12.80;;;5.53;;
25409;SDS011;13339;50.840;4.346;2023-03-12T05:34:51;11.20;;;6.43;;
25409;SDS011;13339;50.840;4.346;2023-03-12T05:37:17;11.97;;;6.20;;
25409;SDS011;13339;50.840;4.346;2023-03-12T05:39:42;11.53;;;5.67;;
25409;SDS011;13339;50.840;4.346;2023-03-12T05:42:11;12.43;;;6.90;;
25409;SDS011;13339;50.840;4.346;2023-03-12T05:44:37;10.73;;;7.17;;
25409;SDS011;13339;50.840;4.346;2023-03-12T05:47:03;14.20;;;6.57;;
25409;SDS011;13339;50.840;4.346;2023-03-12T05:49:29;9.13;;;6.33;;
25409;SDS011;13339;50.840;4.346;2023-03-12T05:51:55;9.93;;;6.83;;
25409;SDS011;13339;50.840;4.346;2023-03-12T05:54:21;10.67;;;6.73;;
25409;SDS011;13339;50.840;4.346;2023-03-12T05:56:47;14.03;;;7.87;;
25409;SDS011;13339;50.840;4.346;2023-03-12T05:59:13;12.97;;;7.87;;
25409;SDS011;13339;50.840;4.346;2023-03-12T06:01:38;11.23;;;8.27;;
25409;SDS011;13339;50.840;4.346;2023-03-12T06:04:04;11.80;;;8.10;;
25409;SDS011;13339;50.840;4.346;2023-03-12T06:06:31;12.23;;;8.47;;
25409;SDS011;13339;50.840;4.346;2023-03-12T06:08:57;16.10;;;8.27;;
25409;SDS011;13339;50.840;4.346;2023-03-12T06:11:23;10.60;;;7.97;;
25409;SDS011;13339;50.840;4.346;2023-03-12T06:13:49;16.13;;;8.53;;
25409;SDS011;13339;50.840;4.346;2023-03-12T06:16:21;13.87;;;8.93;;
25409;SDS011;13339;50.840;4.346;2023-03-12T06:18:53;14.33;;;8.90;;
25409;SDS011;13339;50.840;4.346;2023-03-12T06:21:24;11.23;;;8.97;;
25409;SDS011;13339;50.840;4.346;2023-03-12T06:23:52;14.63;;;9.33;;
25409;SDS011;13339;50.840;4.346;2023-03-12T06:26:18;15.93;;;10.40;;
25409;SDS011;13339;50.840;4.346;2023-03-12T06:28:45;13.90;;;10.17;;
25409;SDS011;13339;50.840;4.346;2023-03-12T06:31:12;13.90;;;9.97;;
25409;SDS011;13339;50.840;4.346;2023-03-12T06:33:38;15.30;;;10.40;;
25409;SDS011;13339;50.840;4.346;2023-03-12T06:36:04;15.67;;;10.03;;
25409;SDS011;13339;50.840;4.346;2023-03-12T06:38:31;19.00;;;10.40;;
25409;SDS011;13339;50.840;4.346;2023-03-12T06:43:33;14.80;;;10.10;;
25409;SDS011;13339;50.840;4.346;2023-03-12T06:46:00;15.37;;;10.50;;
25409;SDS011;13339;50.840;4.346;2023-03-12T06:48:27;12.60;;;9.77;;
25409;SDS011;13339;50.840;4.346;2023-03-12T06:50:54;14.43;;;10.63;;
25409;SDS011;13339;50.840;4.346;2023-03-12T06:53:20;23.77;;;11.53;;
25409;SDS011;13339;50.840;4.346;2023-03-12T06:55:48;14.50;;;10.17;;
25409;SDS011;13339;50.840;4.346;2023-03-12T06:58:14;16.17;;;11.07;;
25409;SDS011;13339;50.840;4.346;2023-03-12T07:00:40;14.23;;;10.43;;
25409;SDS011;13339;50.840;4.346;2023-03-12T07:03:06;13.80;;;10.23;;
25409;SDS011;13339;50.840;4.346;2023-03-12T07:05:31;16.70;;;10.77;;
25409;SDS011;13339;50.840;4.346;2023-03-12T07:07:57;14.63;;;11.00;;
25409;SDS011;13339;50.840;4.346;2023-03-12T07:10:23;17.77;;;11.57;;
25409;SDS011;13339;50.840;4.346;2023-03-12T07:12:52;18.23;;;11.47;;
25409;SDS011;13339;50.840;4.346;2023-03-12T07:15:17;16.33;;;11.30;;
25409;SDS011;13339;50.840;4.346;2023-03-12T07:17:43;17.43;;;10.70;;
25409;SDS011;13339;50.840;4.346;2023-03-12T07:20:09;16.73;;;11.57;;
25409;SDS011;13339;50.840;4.346;2023-03-12T07:22:35;18.23;;;11.63;;
25409;SDS011;13339;50.840;4.346;2023-03-12T07:25:00;19.57;;;12.07;;
25409;SDS011;13339;50.840;4.346;2023-03-12T07:27:26;24.83;;;11.37;;
25409;SDS011;13339;50.840;4.346;2023-03-12T07:29:51;20.03;;;11.93;;
25409;SDS011;13339;50.840;4.346;2023-03-12T07:32:17;18.23;;;10.93;;
25409;SDS011;13339;50.840;4.346;2023-03-12T07:34:42;23.93;;;12.67;;
25409;SDS011;13339;50.840;4.346;2023-03-12T07:37:08;19.80;;;11.63;;
25409;SDS011;13339;50.840;4.346;2023-03-12T07:39:34;28.40;;;12.57;;
25409;SDS011;13339;50.840;4.346;2023-03-12T07:41:59;24.00;;;11.77;;
25409;SDS011;13339;50.840;4.346;2023-03-12T07:44:25;24.90;;;12.07;;
25409;SDS011;13339;50.840;4.346;2023-03-12T07:46:51;30.30;;;12.63;;
25409;SDS011;13339;50.840;4.346;2023-03-12T07:49:17;27.88;;;13.88;;
25409;SDS011;13339;50.840;4.346;2023-03-12T07:51:43;28.27;;;11.70;;
25409;SDS011;13339;50.840;4.346;2023-03-12T07:54:09;37.50;;;12.43;;
25409;SDS011;13339;50.840;4.346;2023-03-12T07:56:35;36.57;;;13.03;;
25409;SDS011;13339;50.840;4.346;2023-03-12T07:59:01;45.93;;;14.10;;
25409;SDS011;13339;50.840;4.346;2023-03-12T08:01:26;38.03;;;14.13;;
25409;SDS011;13339;50.840;4.346;2023-03-12T08:03:56;41.73;;;13.17;;
25409;SDS011;13339;50.840;4.346;2023-03-12T08:06:22;47.17;;;14.97;;
25409;SDS011;13339;50.840;4.346;2023-03-12T08:08:48;48.93;;;15.17;;
25409;SDS011;13339;50.840;4.346;2023-03-12T08:11:14;55.47;;;15.17;;
25409;SDS011;13339;50.840;4.346;2023-03-12T08:13:40;47.83;;;14.67;;
25409;SDS011;13339;50.840;4.346;2023-03-12T08:16:05;49.27;;;15.03;;
25409;SDS011;13339;50.840;4.346;2023-03-12T08:18:31;53.50;;;16.07;;
25409;SDS011;13339;50.840;4.346;2023-03-12T08:20:57;55.90;;;16.50;;
25409;SDS011;13339;50.840;4.346;2023-03-12T08:23:24;59.07;;;16.90;;
25409;SDS011;13339;50.840;4.346;2023-03-12T08:25:50;55.90;;;15.93;;
25409;SDS011;13339;50.840;4.346;2023-03-12T08:28:16;60.33;;;17.07;;
25409;SDS011;13339;50.840;4.346;2023-03-12T08:30:46;63.20;;;17.47;;
25409;SDS011;13339;50.840;4.346;2023-03-12T08:33:13;62.57;;;16.20;;
25409;SDS011;13339;50.840;4.346;2023-03-12T08:35:40;57.27;;;16.67;;
25409;SDS011;13339;50.840;4.346;2023-03-12T08:38:06;71.60;;;17.57;;
25409;SDS011;13339;50.840;4.346;2023-03-12T08:40:32;70.13;;;16.63;;
25409;SDS011;13339;50.840;4.346;2023-03-12T08:43:01;54.37;;;15.67;;
25409;SDS011;13339;50.840;4.346;2023-03-12T08:45:28;54.77;;;15.43;;
25409;SDS011;13339;50.840;4.346;2023-03-12T08:48:02;65.80;;;16.50;;
25409;SDS011;13339;50.840;4.346;2023-03-12T08:50:29;69.50;;;14.53;;
25409;SDS011;13339;50.840;4.346;2023-03-12T08:52:56;54.93;;;14.70;;
25409;SDS011;13339;50.840;4.346;2023-03-12T08:55:24;65.83;;;15.50;;
25409;SDS011;13339;50.840;4.346;2023-03-12T08:57:53;69.37;;;15.47;;
25409;SDS011;13339;50.840;4.346;2023-03-12T09:00:20;56.07;;;13.97;;
25409;SDS011;13339;50.840;4.346;2023-03-12T09:02:46;52.10;;;13.17;;
25409;SDS011;13339;50.840;4.346;2023-03-12T09:05:13;55.80;;;13.80;;
25409;SDS011;13339;50.840;4.346;2023-03-12T09:07:40;65.70;;;12.87;;
25409;SDS011;13339;50.840;4.346;2023-03-12T09:10:05;57.90;;;13.13;;
25409;SDS011;13339;50.840;4.346;2023-03-12T09:12:32;62.77;;;13.67;;
25409;SDS011;13339;50.840;4.346;2023-03-12T09:14:57;60.70;;;13.40;;
25409;SDS011;13339;50.840;4.346;2023-03-12T09:17:23;56.57;;;11.77;;
25409;SDS011;13339;50.840;4.346;2023-03-12T09:19:49;61.80;;;11.73;;
25409;SDS011;13339;50.840;4.346;2023-03-12T09:22:14;49.40;;;11.10;;
25409;SDS011;13339;50.840;4.346;2023-03-12T09:24:41;60.40;;;12.57;;
25409;SDS011;13339;50.840;4.346;2023-03-12T09:27:08;50.17;;;11.87;;
25409;SDS011;13339;50.840;4.346;2023-03-12T09:29:33;55.43;;;11.53;;
25409;SDS011;13339;50.840;4.346;2023-03-12T09:32:00;56.10;;;11.80;;
25409;SDS011;13339;50.840;4.346;2023-03-12T09:34:26;51.63;;;10.73;;
25409;SDS011;13339;50.840;4.346;2023-03-12T09:36:51;55.60;;;11.33;;
25409;SDS011;13339;50.840;4.346;2023-03-12T09:39:17;64.63;;;10.47;;
25409;SDS011;13339;50.840;4.346;2023-03-12T09:41:44;47.80;;;9.67;;
25409;SDS011;13339;50.840;4.346;2023-03-12T09:46:56;53.53;;;9.23;;
25409;SDS011;13339;50.840;4.346;2023-03-12T09:49:33;42.57;;;9.30;;
25409;SDS011;13339;50.840;4.346;2023-03-12T09:52:07;56.63;;;10.47;;
25409;SDS011;13339;50.840;4.346;2023-03-12T09:54:46;53.40;;;9.53;;
25409;SDS011;13339;50.840;4.346;2023-03-12T09:57:24;46.37;;;9.80;;
25409;SDS011;13339;50.840;4.346;2023-03-12T09:59:50;51.67;;;9.13;;
25409;SDS011;13339;50.840;4.346;2023-03-12T10:05:25;46.67;;;9.90;;
25409;SDS011;13339;50.840;4.346;2023-03-12T10:07:59;46.33;;;9.47;;
25409;SDS011;13339;50.840;4.346;2023-03-12T10:11:21;53.67;;;9.67;;
25409;SDS011;13339;50.840;4.346;2023-03-12T10:13:31;64.10;;;10.43;;
25409;SDS011;13339;50.840;4.346;2023-03-12T10:18:55;55.27;;;10.07;;
25409;SDS011;13339;50.840;4.346;2023-03-12T10:24:21;57.97;;;10.03;;
25409;SDS011;13339;50.840;4.346;2023-03-12T10:26:56;49.03;;;9.00;;
25409;SDS011;13339;50.840;4.346;2023-03-12T10:29:26;44.20;;;9.37;;
25409;SDS011;13339;50.840;4.346;2023-03-12T10:34:39;48.13;;;9.67;;
25409;SDS011;13339;50.840;4.346;2023-03-12T10:39:49;45.97;;;9.70;;
25409;SDS011;13339;50.840;4.346;2023-03-12T10:42:20;42.50;;;9.37;;
25409;SDS011;13339;50.840;4.346;2023-03-12T10:44:48;48.70;;;10.90;;
25409;SDS011;13339;50.840;4.346;2023-03-12T10:47:22;64.00;;;11.53;;
25409;SDS011;13339;50.840;4.346;2023-03-12T10:50:19;43.53;;;10.00;;
25409;SDS011;13339;50.840;4.346;2023-03-12T10:52:51;43.27;;;10.07;;
25409;SDS011;13339;50.840;4.346;2023-03-12T10:55:36;45.80;;;10.13;;
25409;SDS011;13339;50.840;4.346;2023-03-12T10:58:02;42.20;;;10.23;;
25409;SDS011;13339;50.840;4.346;2023-03-12T11:00:28;52.10;;;10.93;;
25409;SDS011;13339;50.840;4.346;2023-03-12T11:05:25;45.13;;;10.07;;
25409;SDS011;13339;50.840;4.346;2023-03-12T11:07:54;46.73;;;10.37;;
25409;SDS011;13339;50.840;4.346;2023-03-12T11:13:20;36.30;;;9.10;;
25409;SDS011;13339;50.840;4.346;2023-03-12T11:15:46;50.63;;;10.97;;
25409;SDS011;13339;50.840;4.346;2023-03-12T11:18:28;43.27;;;11.47;;
25409;SDS011;13339;50.840;4.346;2023-03-12T11:23:33;48.30;;;11.20;;
25409;SDS011;13339;50.840;4.346;2023-03-12T11:26:01;50.60;;;10.57;;
25409;SDS011;13339;50.840;4.346;2023-03-12T11:28:35;56.07;;;11.87;;
25409;SDS011;13339;50.840;4.346;2023-03-12T11:31:12;45.57;;;10.50;;
25409;SDS011;13339;50.840;4.346;2023-03-12T11:33:44;48.03;;;9.87;;
25409;SDS011;13339;50.840;4.346;2023-03-12T11:38:42;51.47;;;10.77;;
25409;SDS011;13339;50.840;4.346;2023-03-12T11:41:22;47.13;;;10.33;;
25409;SDS011;13339;50.840;4.346;2023-03-12T11:44:03;53.13;;;10.37;;
25409;SDS011;13339;50.840;4.346;2023-03-12T11:49:59;53.27;;;11.63;;
25409;SDS011;13339;50.840;4.346;2023-03-12T11:55:37;51.97;;;10.33;;
25409;SDS011;13339;50.840;4.346;2023-03-12T12:06:23;46.60;;;10.17;;
25409;SDS011;13339;50.840;4.346;2023-03-12T12:09:12;54.90;;;11.40;;
25409;SDS011;13339;50.840;4.346;2023-03-12T12:36:26;35.63;;;8.00;;
25409;SDS011;13339;50.840;4.346;2023-03-12T12:38:58;53.00;;;9.40;;
25409;SDS011;13339;50.840;4.346;2023-03-12T12:41:34;37.90;;;6.87;;
25409;SDS011;13339;50.840;4.346;2023-03-12T12:44:09;37.17;;;8.00;;
25409;SDS011;13339;50.840;4.346;2023-03-12T12:46:39;38.13;;;7.40;;
25409;SDS011;13339;50.840;4.346;2023-03-12T12:49:11;39.27;;;8.03;;
25409;SDS011;13339;50.840;4.346;2023-03-12T12:51:45;39.20;;;6.53;;
25409;SDS011;13339;50.840;4.346;2023-03-12T12:54:19;34.37;;;6.90;;
25409;SDS011;13339;50.840;4.346;2023-03-12T12:56:53;44.70;;;8.73;;
25409;SDS011;13339;50.840;4.346;2023-03-12T13:02:14;43.05;;;8.75;;
25409;SDS011;13339;50.840;4.346;2023-03-12T13:04:43;41.77;;;8.40;;
25409;SDS011;13339;50.840;4.346;2023-03-12T13:12:19;42.83;;;8.27;;
25409;SDS011;13339;50.840;4.346;2023-03-12T13:20:31;38.90;;;8.70;;
25409;SDS011;13339;50.840;4.346;2023-03-12T13:23:27;39.23;;;7.67;;
25409;SDS011;13339;50.840;4.346;2023-03-12T13:33:49;33.60;;;8.07;;
25409;SDS011;13339;50.840;4.346;2023-03-12T13:54:42;33.47;;;7.53;;
25409;SDS011;13339;50.840;4.346;2023-03-12T13:57:11;41.87;;;7.83;;
25409;SDS011;13339;50.840;4.346;2023-03-12T14:00:05;34.07;;;7.47;;
25409;SDS011;13339;50.840;4.346;2023-03-12T14:02:42;34.33;;;8.33;;
25409;SDS011;13339;50.840;4.346;2023-03-12T14:05:14;36.03;;;7.37;;
25409;SDS011;13339;50.840;4.346;2023-03-12T14:16:43;32.70;;;6.90;;
25409;SDS011;13339;50.840;4.346;2023-03-12T14:19:18;33.27;;;6.73;;
25409;SDS011;13339;50.840;4.346;2023-03-12T14:21:49;32.87;;;6.77;;
25409;SDS011;13339;50.840;4.346;2023-03-12T14:24:27;36.80;;;7.37;;
25409;SDS011;13339;50.840;4.346;2023-03-12T14:27:02;32.60;;;6.57;;
25409;SDS011;13339;50.840;4.346;2023-03-12T14:32:22;26.70;;;5.90;;
25409;SDS011;13339;50.840;4.346;2023-03-12T14:34:54;36.97;;;7.40;;
25409;SDS011;13339;50.840;4.346;2023-03-12T14:39:58;31.17;;;6.73;;
25409;SDS011;13339;50.840;4.346;2023-03-12T14:42:30;36.07;;;6.80;;
25409;SDS011;13339;50.840;4.346;2023-03-12T14:47:25;27.73;;;5.80;;
25409;SDS011;13339;50.840;4.346;2023-03-12T14:49:53;31.33;;;6.27;;
25409;SDS011;13339;50.840;4.346;2023-03-12T14:52:22;29.83;;;5.93;;
25409;SDS011;13339;50.840;4.346;2023-03-12T14:57:19;35.10;;;6.67;;
25409;SDS011;13339;50.840;4.346;2023-03-12T14:59:54;33.23;;;7.23;;
25409;SDS011;13339;50.840;4.346;2023-03-12T15:02:21;29.27;;;5.90;;
25409;SDS011;13339;50.840;4.346;2023-03-12T15:04:48;26.93;;;5.17;;
25409;SDS011;13339;50.840;4.346;2023-03-12T15:07:17;29.47;;;5.97;;
25409;SDS011;13339;50.840;4.346;2023-03-12T15:09:52;29.67;;;5.67;;
25409;SDS011;13339;50.840;4.346;2023-03-12T15:12:19;26.43;;;6.00;;
25409;SDS011;13339;50.840;4.346;2023-03-12T15:14:47;35.30;;;6.63;;
25409;SDS011;13339;50.840;4.346;2023-03-12T15:17:17;27.00;;;5.63;;
25409;SDS011;13339;50.840;4.346;2023-03-12T15:19:46;35.80;;;7.00;;
25409;SDS011;13339;50.840;4.346;2023-03-12T15:22:20;29.47;;;6.27;;
25409;SDS011;13339;50.840;4.346;2023-03-12T15:24:48;30.07;;;6.67;;
25409;SDS011;13339;50.840;4.346;2023-03-12T15:29:52;30.23;;;6.47;;
25409;SDS011;13339;50.840;4.346;2023-03-12T15:32:20;26.20;;;5.73;;
25409;SDS011;13339;50.840;4.346;2023-03-12T15:34:48;32.70;;;7.13;;
25409;SDS011;13339;50.840;4.346;2023-03-12T15:39:43;35.03;;;6.73;;
25409;SDS011;13339;50.840;4.346;2023-03-12T15:42:16;32.90;;;6.30;;
25409;SDS011;13339;50.840;4.346;2023-03-12T15:44:45;30.07;;;6.37;;
25409;SDS011;13339;50.840;4.346;2023-03-12T15:47:16;32.20;;;6.40;;
25409;SDS011;13339;50.840;4.346;2023-03-12T15:49:46;28.67;;;5.57;;
25409;SDS011;13339;50.840;4.346;2023-03-12T15:52:29;29.90;;;6.37;;
25409;SDS011;13339;50.840;4.346;2023-03-12T15:57:31;26.27;;;6.10;;
25409;SDS011;13339;50.840;4.346;2023-03-12T16:05:33;34.17;;;6.60;;
25409;SDS011;13339;50.840;4.346;2023-03-12T16:08:05;32.97;;;7.97;;
25409;SDS011;13339;50.840;4.346;2023-03-12T16:10:35;40.63;;;6.47;;
25409;SDS011;13339;50.840;4.346;2023-03-12T16:13:02;29.10;;;6.33;;
25409;SDS011;13339;50.840;4.346;2023-03-12T16:15:32;36.80;;;7.30;;
25409;SDS011;13339;50.840;4.346;2023-03-12T16:18:01;36.20;;;6.10;;
25409;SDS011;13339;50.840;4.346;2023-03-12T16:20:27;31.67;;;7.27;;
25409;SDS011;13339;50.840;4.346;2023-03-12T16:22:53;34.70;;;6.60;;
25409;SDS011;13339;50.840;4.346;2023-03-12T16:25:19;34.93;;;6.73;;
25409;SDS011;13339;50.840;4.346;2023-03-12T16:27:49;35.47;;;7.10;;
25409;SDS011;13339;50.840;4.346;2023-03-12T16:30:21;25.83;;;6.50;;
25409;SDS011;13339;50.840;4.346;2023-03-12T16:32:50;31.00;;;6.53;;
25409;SDS011;13339;50.840;4.346;2023-03-12T16:35:16;39.00;;;7.50;;
25409;SDS011;13339;50.840;4.346;2023-03-12T16:37:43;37.93;;;6.90;;
25409;SDS011;13339;50.840;4.346;2023-03-12T16:40:10;27.47;;;6.13;;
25409;SDS011;13339;50.840;4.346;2023-03-12T16:42:37;39.47;;;6.87;;
25409;SDS011;13339;50.840;4.346;2023-03-12T16:45:07;31.03;;;6.83;;
25409;SDS011;13339;50.840;4.346;2023-03-12T16:47:35;34.90;;;6.37;;
25409;SDS011;13339;50.840;4.346;2023-03-12T16:50:00;35.70;;;6.60;;
25409;SDS011;13339;50.840;4.346;2023-03-12T16:52:26;40.27;;;6.83;;
25409;SDS011;13339;50.840;4.346;2023-03-12T16:54:52;34.83;;;6.87;;
25409;SDS011;13339;50.840;4.346;2023-03-12T16:59:49;30.33;;;6.40;;
25409;SDS011;13339;50.840;4.346;2023-03-12T17:02:16;41.77;;;6.53;;
25409;SDS011;13339;50.840;4.346;2023-03-12T17:04:42;35.37;;;7.67;;
25409;SDS011;13339;50.840;4.346;2023-03-12T17:07:09;27.17;;;7.33;;
25409;SDS011;13339;50.840;4.346;2023-03-12T17:09:34;40.63;;;7.83;;
25409;SDS011;13339;50.840;4.346;2023-03-12T17:12:00;35.47;;;6.90;;
25409;SDS011;13339;50.840;4.346;2023-03-12T17:14:26;37.40;;;7.87;;